Terminal Aerodrome Forecast
Issued by NWS Tuscon, AZ

Home | Current Version | Previous Version | Text Only | Print | Product List | Glossary On
Versions: 1 2 3 4 5 6 7 8 9 10 11 12 13 14 15 16 17 18
000
FTUS45 KTWC 031120
TAFDUG
TAF
KDUG 031120Z 0312/0412 VRB04KT P6SM SKC
     FM031700 19012KT P6SM SCT070
     FM032000 22016G26KT P6SM SCT070 SCT110
     FM040300 24008KT P6SM SCT070
     FM040700 16004KT P6SM SCT060 BKN090=

USA.gov is the U.S. government's official web portal to all federal, state and local government web resources and services.